createdAt,value
2019-03-15T00:00:46.150Z,5.53
2019-03-15T00:03:15.660Z,5.44
2019-03-15T00:05:45.532Z,5.53
2019-03-15T00:08:15.633Z,5.54
2019-03-15T00:10:45.683Z,5.53
2019-03-15T00:13:16.935Z,5.56
2019-03-15T00:15:47.330Z,5.54
2019-03-15T00:18:16.893Z,5.51
2019-03-15T00:20:45.642Z,5.51
2019-03-15T00:23:15.290Z,5.53
2019-03-15T00:25:44.636Z,5.54
2019-03-15T00:28:14.271Z,5.55
2019-03-15T00:30:43.572Z,5.58
2019-03-15T00:33:12.430Z,5.70
2019-03-15T00:35:41.838Z,5.63
2019-03-15T00:38:11.720Z,5.66
2019-03-15T00:40:42.683Z,5.67
2019-03-15T00:43:14.304Z,5.66
2019-03-15T00:45:43.573Z,5.65
2019-03-15T00:48:12.890Z,5.72
2019-03-15T00:50:42.452Z,5.71
2019-03-15T00:53:11.956Z,5.74
2019-03-15T00:55:41.232Z,5.71
2019-03-15T00:58:10.587Z,5.65
2019-03-15T01:00:46.223Z,5.63
2019-03-15T01:03:15.183Z,5.62
2019-03-15T01:19:08.792Z,5.62
2019-03-15T01:21:37.727Z,5.58
2019-03-15T01:24:07.713Z,5.60
2019-03-15T01:26:40.558Z,5.60
2019-03-15T01:29:10.514Z,5.61
2019-03-15T01:31:40.418Z,5.56
2019-03-15T01:34:09.938Z,5.55
2019-03-15T01:36:39.443Z,5.53
2019-03-15T01:39:10.079Z,5.48
2019-03-15T01:41:39.897Z,5.47
2019-03-15T01:44:10.759Z,5.52
2019-03-15T01:46:39.527Z,5.53
2019-03-15T01:49:10.435Z,5.63
2019-03-15T01:51:42.603Z,5.60
2019-03-15T01:54:14.333Z,5.65
2019-03-15T01:56:44.064Z,5.66
2019-03-15T01:59:13.672Z,5.65
2019-03-15T02:01:43.384Z,5.71
2019-03-15T02:04:12.197Z,5.70
2019-03-15T02:06:41.166Z,5.66
2019-03-15T02:09:10.823Z,5.67
2019-03-15T02:11:40.267Z,5.60
2019-03-15T02:14:09.523Z,5.68
2019-03-15T02:16:38.713Z,5.65
2019-03-15T02:19:08.745Z,5.62
2019-03-15T02:21:38.241Z,5.65
2019-03-15T02:24:07.750Z,5.67
2019-03-15T02:26:37.712Z,5.68
2019-03-15T02:29:09.027Z,5.64
2019-03-15T02:31:41.529Z,5.61
2019-03-15T02:34:12.364Z,5.62
2019-03-15T02:36:43.642Z,5.65
2019-03-15T02:39:13.920Z,5.65
2019-03-15T02:41:42.759Z,5.66
2019-03-15T02:44:12.901Z,5.63
2019-03-15T02:46:50.076Z,5.56
2019-03-15T02:49:19.696Z,5.58
2019-03-15T02:51:49.925Z,5.54
2019-03-15T02:54:19.233Z,5.53
2019-03-15T02:56:49.166Z,5.60
2019-03-15T02:59:18.561Z,5.56
2019-03-15T03:01:47.325Z,5.54
2019-03-15T03:04:16.530Z,5.60
2019-03-15T03:06:46.190Z,5.60
2019-03-15T03:09:16.794Z,5.56
2019-03-15T03:11:46.454Z,5.53
2019-03-15T03:14:15.914Z,5.54
2019-03-15T03:16:46.037Z,5.61
2019-03-15T03:19:15.110Z,5.59
2019-03-15T03:21:44.976Z,5.57
2019-03-15T03:24:16.663Z,5.59
2019-03-15T03:26:45.880Z,5.60
2019-03-15T03:29:15.409Z,5.51
2019-03-15T03:31:46.082Z,5.56
2019-03-15T03:34:15.867Z,5.53
2019-03-15T03:36:44.690Z,5.49
2019-03-15T03:39:15.187Z,5.58
2019-03-15T03:41:45.937Z,5.51
2019-03-15T03:44:16.299Z,5.47
2019-03-15T03:46:45.196Z,5.52
2019-03-15T03:49:14.895Z,5.55
2019-03-15T03:51:43.940Z,5.49
2019-03-15T03:54:16.870Z,5.50
2019-03-15T03:56:46.618Z,5.44
2019-03-15T03:59:16.535Z,5.41
2019-03-15T04:01:45.502Z,5.49
2019-03-15T04:04:15.565Z,5.46
2019-03-15T04:06:44.824Z,5.41
2019-03-15T04:09:14.550Z,5.40
2019-03-15T04:11:54.850Z,5.43
2019-03-15T04:14:15.023Z,5.41
2019-03-15T04:16:43.835Z,5.42
2019-03-15T04:19:12.659Z,5.45
2019-03-15T04:21:41.737Z,5.35
2019-03-15T04:24:12.282Z,5.38
2019-03-15T04:26:41.226Z,5.41
2019-03-15T04:29:10.109Z,5.36
2019-03-15T04:31:39.718Z,5.39
2019-03-15T04:34:09.835Z,5.35
2019-03-15T04:36:38.613Z,5.37
2019-03-15T04:39:07.754Z,5.28
2019-03-15T04:41:36.543Z,5.34
2019-03-15T04:44:05.522Z,5.33
2019-03-15T04:46:34.459Z,5.31
2019-03-15T04:49:03.255Z,5.36
2019-03-15T04:51:32.235Z,5.39
2019-03-15T04:54:01.082Z,5.37
2019-03-15T04:56:31.285Z,5.41
2019-03-15T04:59:00.072Z,5.37
2019-03-15T05:01:29.192Z,5.46
2019-03-15T05:03:58.107Z,5.49
2019-03-15T05:06:27.020Z,5.52
2019-03-15T05:08:55.826Z,5.53
2019-03-15T05:11:25.420Z,5.52
2019-03-15T05:13:58.873Z,5.52
2019-03-15T05:16:28.121Z,5.54
2019-03-15T05:18:57.703Z,5.61
2019-03-15T05:21:27.535Z,5.63
2019-03-15T05:23:56.792Z,5.62
2019-03-15T05:26:31.584Z,5.63
2019-03-15T05:29:00.438Z,5.70
2019-03-15T05:31:29.272Z,5.73
2019-03-15T05:33:58.609Z,5.73
2019-03-15T05:36:27.416Z,5.70
2019-03-15T05:38:57.449Z,5.73
2019-03-15T05:41:26.321Z,5.70
2019-03-15T05:43:55.108Z,5.69
2019-03-15T05:46:24.744Z,5.69
2019-03-15T05:48:54.758Z,5.72
2019-03-15T05:51:23.519Z,5.70
2019-03-15T05:53:52.322Z,5.65
2019-03-15T05:56:21.231Z,5.66
2019-03-15T05:58:51.018Z,5.66
2019-03-15T06:01:20.762Z,5.71
2019-03-15T06:03:50.181Z,5.72
2019-03-15T06:06:18.934Z,5.72
2019-03-15T06:08:48.168Z,5.73
2019-03-15T06:11:17.807Z,5.72
2019-03-15T06:17:26.759Z,5.74
2019-03-15T06:19:56.293Z,5.73
2019-03-15T06:22:25.466Z,5.77
2019-03-15T06:24:54.956Z,5.76
2019-03-15T06:27:24.190Z,5.82
2019-03-15T06:29:53.017Z,5.79
2019-03-15T06:32:22.941Z,5.76
2019-03-15T06:34:52.477Z,5.80
2019-03-15T06:37:22.082Z,5.76
2019-03-15T06:43:19.766Z,5.75
2019-03-15T06:45:48.798Z,5.77
2019-03-15T06:48:17.958Z,5.76
2019-03-15T06:50:46.869Z,5.79
2019-03-15T06:53:16.617Z,5.80
2019-03-15T06:55:45.620Z,5.84
2019-03-15T06:58:18.410Z,5.74
2019-03-15T07:00:47.263Z,5.77
2019-03-15T07:03:16.819Z,5.78
2019-03-15T07:05:47.612Z,5.76
2019-03-15T07:08:17.000Z,5.76
2019-03-15T07:10:46.836Z,5.77
2019-03-15T07:13:16.416Z,5.77
2019-03-15T07:15:45.518Z,5.79
2019-03-15T07:18:18.239Z,5.73
2019-03-15T07:20:46.730Z,5.78
2019-03-15T07:23:16.819Z,5.81
2019-03-15T07:25:47.109Z,5.83
2019-03-15T07:28:16.641Z,5.88
2019-03-15T07:30:45.412Z,5.86
2019-03-15T07:33:14.368Z,5.89
2019-03-15T07:35:43.551Z,5.88
2019-03-15T07:38:14.037Z,5.92
2019-03-15T07:40:44.113Z,6.00
2019-03-15T07:43:14.499Z,6.00
2019-03-15T07:45:44.421Z,6.01
2019-03-15T07:48:22.552Z,6.01
2019-03-15T07:50:45.007Z,6.01
2019-03-15T07:53:14.717Z,6.05
2019-03-15T07:55:44.486Z,6.06
2019-03-15T07:58:13.747Z,6.05
2019-03-15T08:00:43.424Z,6.08
2019-03-15T08:03:13.414Z,6.09
2019-03-15T08:05:42.188Z,6.08
2019-03-15T08:08:11.723Z,6.06
2019-03-15T08:10:40.890Z,6.13
2019-03-15T08:13:10.683Z,6.16
2019-03-15T08:15:40.362Z,6.13
2019-03-15T08:18:09.587Z,6.18
2019-03-15T08:20:38.843Z,6.16
2019-03-15T08:23:08.872Z,6.24
2019-03-15T08:25:38.561Z,6.29
2019-03-15T08:28:08.184Z,6.32
2019-03-15T08:30:37.360Z,6.30
2019-03-15T08:33:10.554Z,6.33
2019-03-15T08:35:36.895Z,6.38
2019-03-15T08:38:06.543Z,6.39
2019-03-15T08:40:36.219Z,6.40
2019-03-15T08:43:06.237Z,6.44
2019-03-15T08:45:35.867Z,6.44
2019-03-15T08:48:05.551Z,6.48
2019-03-15T08:50:35.501Z,6.50
2019-03-15T08:53:05.103Z,6.52
2019-03-15T08:55:35.161Z,6.57
2019-03-15T08:58:13.811Z,6.59
2019-03-15T09:00:37.317Z,6.64
2019-03-15T09:03:06.309Z,6.72
2019-03-15T09:05:35.760Z,6.77
2019-03-15T09:08:05.151Z,6.95
2019-03-15T09:10:34.164Z,7.08
2019-03-15T09:13:03.057Z,7.23
2019-03-15T09:15:32.007Z,7.15
2019-03-15T09:18:01.163Z,7.20
2019-03-15T09:20:30.771Z,7.21
2019-03-15T09:22:59.685Z,7.20
2019-03-15T09:25:28.593Z,7.09
2019-03-15T09:27:57.718Z,7.06
2019-03-15T09:30:27.371Z,7.03
2019-03-15T09:32:56.218Z,7.10
2019-03-15T09:35:25.768Z,7.14
2019-03-15T09:37:55.305Z,7.15
2019-03-15T09:40:25.827Z,7.19
2019-03-15T09:42:55.800Z,7.20
2019-03-15T09:45:25.942Z,7.22
2019-03-15T09:47:54.981Z,7.24
2019-03-15T09:50:36.142Z,7.30
2019-03-15T09:52:55.662Z,7.35
2019-03-15T09:55:32.939Z,7.35
2019-03-15T09:57:56.315Z,7.43
2019-03-15T10:00:25.185Z,7.56
2019-03-15T10:02:55.958Z,7.62
2019-03-15T10:05:24.758Z,7.58
2019-03-15T10:07:56.667Z,7.60
2019-03-15T10:10:25.638Z,7.52
2019-03-15T10:13:05.376Z,7.52
2019-03-15T10:15:26.875Z,7.49
2019-03-15T10:17:55.733Z,7.42
2019-03-15T10:20:27.008Z,7.35
2019-03-15T10:23:06.045Z,7.25
2019-03-15T10:25:28.708Z,7.34
2019-03-15T10:27:58.050Z,7.38
2019-03-15T10:30:27.696Z,7.44
2019-03-15T10:32:57.931Z,7.45
2019-03-15T10:41:22.068Z,7.37
2019-03-15T10:43:51.751Z,7.36
2019-03-15T10:46:25.301Z,7.38
2019-03-15T10:48:55.022Z,7.36
2019-03-15T10:51:24.667Z,7.36
2019-03-15T10:53:55.035Z,7.40
2019-03-15T10:56:24.698Z,7.38
2019-03-15T10:58:54.050Z,7.36
2019-03-15T11:01:23.880Z,7.33
2019-03-15T11:03:53.484Z,7.31
2019-03-15T11:06:22.801Z,7.30
2019-03-15T11:08:51.615Z,7.31
2019-03-15T11:11:21.604Z,7.34
2019-03-15T11:13:55.463Z,7.35
2019-03-15T11:16:23.579Z,7.36
2019-03-15T11:18:53.947Z,7.37
2019-03-15T11:21:23.102Z,7.28
2019-03-15T11:23:52.916Z,7.24
2019-03-15T11:26:23.572Z,7.22
2019-03-15T11:28:52.850Z,7.18
2019-03-15T11:31:21.734Z,7.17
2019-03-15T11:34:00.211Z,7.14
2019-03-15T11:36:29.578Z,7.11
2019-03-15T11:38:58.921Z,7.06
2019-03-15T11:41:27.951Z,7.00
2019-03-15T11:43:56.969Z,6.93
2019-03-15T11:46:26.628Z,6.99
2019-03-15T11:48:55.831Z,6.97
2019-03-15T11:51:24.693Z,6.96
2019-03-15T11:53:53.536Z,6.91
2019-03-15T11:56:27.283Z,6.97
2019-03-15T11:58:54.372Z,6.92
2019-03-15T12:01:23.666Z,6.93
2019-03-15T12:03:53.602Z,6.93
2019-03-15T12:06:22.442Z,6.95
2019-03-15T12:08:51.646Z,6.91
2019-03-15T12:11:21.017Z,6.93
2019-03-15T12:13:50.027Z,6.91
2019-03-15T12:16:19.627Z,6.96
2019-03-15T12:18:49.264Z,6.94
2019-03-15T12:21:18.849Z,7.00
2019-03-15T12:23:47.976Z,7.00
2019-03-15T12:26:17.204Z,7.03
2019-03-15T12:28:46.143Z,7.05
2019-03-15T12:31:15.048Z,7.09
2019-03-15T12:33:44.957Z,7.11
2019-03-15T12:36:14.130Z,7.14
2019-03-15T12:38:43.321Z,7.21
2019-03-15T12:41:12.876Z,7.23
2019-03-15T12:43:42.071Z,7.28
2019-03-15T12:46:21.669Z,7.33
2019-03-15T12:48:51.807Z,7.34
2019-03-15T12:51:31.732Z,7.34
2019-03-15T12:53:51.863Z,7.34
2019-03-15T12:56:22.786Z,7.40
2019-03-15T12:58:52.341Z,7.42
2019-03-15T13:01:21.610Z,7.45
2019-03-15T13:03:50.469Z,7.52
2019-03-15T13:06:20.325Z,7.60
2019-03-15T13:08:49.556Z,7.64
2019-03-15T13:11:18.789Z,7.67
2019-03-15T13:13:50.737Z,7.66
2019-03-15T13:16:18.619Z,7.72
2019-03-15T13:18:47.576Z,7.79
2019-03-15T13:21:16.730Z,7.91
2019-03-15T13:23:45.956Z,7.86
2019-03-15T13:26:16.339Z,8.06
2019-03-15T13:28:45.323Z,8.15
2019-03-15T13:31:15.371Z,8.18
2019-03-15T13:33:45.196Z,8.42
2019-03-15T13:36:14.413Z,8.45
2019-03-15T13:38:43.530Z,8.52
2019-03-15T13:41:12.639Z,8.59
2019-03-15T13:43:41.493Z,8.56
2019-03-15T13:46:11.543Z,8.66
2019-03-15T13:48:40.449Z,8.73
2019-03-15T13:51:13.439Z,8.72
2019-03-15T13:53:42.959Z,8.85
2019-03-15T13:56:12.972Z,9.06
2019-03-15T13:58:52.593Z,8.90
2019-03-15T14:01:14.544Z,8.93
2019-03-15T14:03:44.407Z,9.05
2019-03-15T14:06:13.157Z,9.05
2019-03-15T14:08:42.329Z,9.20
2019-03-15T14:11:12.096Z,9.18
2019-03-15T14:13:42.007Z,9.32
2019-03-15T14:16:11.181Z,9.33
2019-03-15T14:18:40.109Z,9.26
2019-03-15T14:21:09.713Z,9.32
2019-03-15T14:23:38.859Z,9.33
2019-03-15T14:26:08.706Z,9.46
2019-03-15T14:28:38.373Z,9.60
2019-03-15T14:31:07.893Z,9.48
2019-03-15T14:33:37.338Z,9.55
2019-03-15T14:36:07.480Z,9.44
2019-03-15T14:38:37.190Z,9.55
2019-03-15T14:41:07.682Z,9.58
2019-03-15T14:43:37.736Z,9.65
2019-03-15T14:46:22.864Z,9.71
2019-03-15T14:48:53.848Z,9.68
2019-03-15T14:55:28.068Z,9.73
2019-03-15T14:58:00.222Z,9.66
2019-03-15T15:00:30.458Z,9.60
2019-03-15T15:02:59.739Z,9.59
2019-03-15T15:05:28.681Z,9.63
2019-03-15T15:07:58.540Z,9.84
2019-03-15T15:10:28.039Z,10.10
2019-03-15T15:12:58.159Z,10.00
2019-03-15T15:15:27.980Z,9.94
2019-03-15T15:17:57.479Z,9.78
2019-03-15T15:20:26.915Z,9.81
2019-03-15T15:22:56.123Z,9.78
2019-03-15T15:25:25.445Z,9.84
2019-03-15T15:28:04.250Z,9.65
2019-03-15T15:30:27.352Z,9.65
2019-03-15T15:32:57.592Z,9.57
2019-03-15T15:35:26.877Z,9.57
2019-03-15T15:37:56.545Z,9.33
2019-03-15T15:40:26.307Z,9.25
2019-03-15T15:42:55.837Z,9.19
2019-03-15T15:45:25.260Z,9.24
2019-03-15T15:47:55.477Z,9.21
2019-03-15T15:50:24.836Z,9.13
2019-03-15T15:52:54.906Z,9.24
2019-03-15T15:55:24.145Z,9.57
2019-03-15T15:57:54.818Z,9.13
2019-03-15T16:00:34.425Z,9.22
2019-03-15T16:03:04.233Z,9.05
2019-03-15T16:05:34.778Z,9.01
2019-03-15T16:08:03.545Z,8.94
2019-03-15T16:10:33.744Z,8.88
2019-03-15T16:13:16.568Z,8.85
2019-03-15T16:15:40.496Z,8.85
2019-03-15T16:18:10.454Z,8.80
2019-03-15T16:20:39.751Z,8.70
2019-03-15T16:23:09.049Z,8.67
2019-03-15T16:25:43.089Z,8.61
2019-03-15T16:28:12.581Z,8.58
2019-03-15T16:30:42.023Z,8.50
2019-03-15T16:33:11.020Z,8.46
2019-03-15T16:35:45.246Z,8.45
2019-03-15T16:38:14.891Z,8.43
2019-03-15T16:40:44.538Z,8.39
2019-03-15T16:43:14.005Z,8.37
2019-03-15T16:45:43.185Z,8.30
2019-03-15T16:48:12.236Z,8.34
2019-03-15T16:50:41.508Z,8.30
2019-03-15T16:53:10.411Z,8.27
2019-03-15T16:55:40.097Z,8.21
2019-03-15T16:58:08.991Z,8.20
2019-03-15T17:00:39.200Z,8.16
2019-03-15T17:03:09.492Z,8.13
2019-03-15T17:05:38.852Z,8.10
2019-03-15T17:08:08.046Z,8.11
2019-03-15T17:10:37.569Z,8.09
2019-03-15T17:13:07.216Z,8.04
2019-03-15T17:15:36.329Z,8.02
2019-03-15T17:18:05.950Z,8.03
2019-03-15T17:20:34.958Z,7.95
2019-03-15T17:23:18.035Z,7.99
2019-03-15T17:25:47.186Z,7.96
2019-03-15T17:28:18.162Z,7.91
2019-03-15T17:30:48.412Z,7.94
2019-03-15T17:33:19.442Z,7.93
2019-03-15T17:35:50.780Z,7.88
2019-03-15T17:38:22.084Z,7.87
2019-03-15T17:40:50.948Z,7.88
2019-03-15T17:43:20.905Z,7.85
2019-03-15T17:45:50.475Z,7.82
2019-03-15T17:48:19.723Z,7.81
2019-03-15T17:50:49.402Z,7.83
2019-03-15T17:53:19.945Z,7.75
2019-03-15T17:55:57.546Z,7.79
2019-03-15T17:58:27.820Z,7.77
2019-03-15T18:00:56.842Z,7.72
2019-03-15T18:03:27.134Z,7.65
2019-03-15T18:05:56.891Z,7.65
2019-03-15T18:08:25.716Z,7.66
2019-03-15T18:10:55.110Z,7.68
2019-03-15T18:13:24.851Z,7.64
2019-03-15T18:16:04.577Z,7.59
2019-03-15T18:18:36.590Z,7.56
2019-03-15T18:21:06.249Z,7.57
2019-03-15T18:23:36.890Z,7.63
2019-03-15T18:26:07.478Z,7.61
2019-03-15T18:28:38.327Z,7.55
2019-03-15T18:31:07.642Z,7.50
2019-03-15T18:33:37.413Z,7.49
2019-03-15T18:36:07.239Z,7.51
2019-03-15T18:38:38.294Z,7.41
2019-03-15T18:41:27.496Z,7.45
2019-03-15T18:43:57.863Z,7.45
2019-03-15T18:46:28.096Z,7.44
2019-03-15T18:48:58.274Z,7.45
2019-03-15T18:51:33.496Z,7.43
2019-03-15T18:54:16.725Z,7.44
2019-03-15T18:56:34.362Z,7.40
2019-03-15T18:59:14.954Z,7.45
2019-03-15T19:01:38.959Z,7.40
2019-03-15T19:04:09.725Z,7.44
2019-03-15T19:06:39.818Z,7.40
2019-03-15T19:09:09.044Z,7.43
2019-03-15T19:11:38.296Z,7.42
2019-03-15T19:14:08.244Z,7.40
2019-03-15T19:16:38.340Z,7.33
2019-03-15T19:19:07.837Z,7.36
2019-03-15T19:21:36.837Z,7.35
2019-03-15T19:24:06.283Z,7.34
2019-03-15T19:26:35.809Z,7.26
2019-03-15T19:29:04.938Z,7.22
2019-03-15T19:31:34.168Z,7.33
2019-03-15T19:34:03.913Z,7.33
2019-03-15T19:36:33.460Z,7.27
2019-03-15T19:39:03.229Z,7.31
2019-03-15T19:41:34.980Z,7.23
2019-03-15T19:44:04.232Z,7.31
2019-03-15T19:46:34.154Z,7.26
2019-03-15T19:49:03.589Z,7.21
2019-03-15T19:51:32.679Z,7.16
2019-03-15T19:54:01.677Z,7.19
2019-03-15T19:56:42.706Z,7.20
2019-03-15T19:59:11.628Z,7.19
2019-03-15T20:01:41.273Z,7.15
2019-03-15T20:04:10.630Z,7.25
2019-03-15T20:06:39.676Z,7.20
2019-03-15T20:09:09.480Z,7.13
2019-03-15T20:11:38.698Z,7.18
2019-03-15T20:14:07.905Z,7.14
2019-03-15T20:16:36.858Z,7.12
2019-03-15T20:19:05.727Z,7.09
2019-03-15T20:21:35.358Z,7.08
2019-03-15T20:24:04.732Z,6.98
2019-03-15T20:26:34.303Z,7.04
2019-03-15T20:29:03.344Z,7.03
2019-03-15T20:31:35.147Z,7.01
2019-03-15T20:34:04.362Z,7.00
2019-03-15T20:36:33.756Z,7.05
2019-03-15T20:39:02.782Z,7.07
2019-03-15T20:41:33.611Z,7.06
2019-03-15T20:44:02.668Z,7.00
2019-03-15T20:46:35.985Z,6.93
2019-03-15T20:49:03.018Z,6.99
2019-03-15T20:51:32.009Z,6.84
2019-03-15T20:54:01.516Z,6.95
2019-03-15T20:56:30.375Z,6.96
2019-03-15T20:58:59.614Z,6.94
2019-03-15T21:01:29.095Z,6.91
2019-03-15T21:03:57.910Z,6.84
2019-03-15T21:06:26.962Z,6.88
2019-03-15T21:08:56.566Z,6.86
2019-03-15T21:11:25.887Z,6.84
2019-03-15T21:13:55.083Z,6.83
2019-03-15T21:16:24.708Z,6.85
2019-03-15T21:18:54.460Z,6.84
2019-03-15T21:21:24.191Z,6.74
2019-03-15T21:23:53.324Z,6.85
2019-03-15T21:26:23.474Z,6.85
2019-03-15T21:28:52.433Z,6.77
2019-03-15T21:31:21.721Z,6.79
2019-03-15T21:33:51.752Z,6.78
2019-03-15T21:36:22.201Z,6.70
2019-03-15T21:38:51.527Z,6.53
2019-03-15T21:41:20.756Z,6.70
2019-03-15T21:43:50.157Z,6.63
2019-03-15T21:46:19.470Z,6.66
2019-03-15T21:48:48.292Z,6.73
2019-03-15T21:51:17.192Z,6.69
2019-03-15T21:53:45.951Z,6.67
2019-03-15T21:56:15.696Z,6.73
2019-03-15T21:58:44.920Z,6.72
2019-03-15T22:01:14.089Z,6.75
2019-03-15T22:03:44.790Z,6.77
2019-03-15T22:06:14.761Z,6.76
2019-03-15T22:08:45.497Z,6.78
2019-03-15T22:11:21.243Z,6.85
2019-03-15T22:13:45.424Z,6.71
2019-03-15T22:16:14.972Z,6.75
2019-03-15T22:18:45.984Z,6.77
2019-03-15T22:21:15.295Z,6.78
2019-03-15T22:23:44.927Z,6.83
2019-03-15T22:26:14.343Z,6.75
2019-03-15T22:28:44.076Z,6.74
2019-03-15T22:31:16.976Z,6.75
2019-03-15T22:33:45.789Z,6.80
2019-03-15T22:36:15.438Z,6.81
2019-03-15T22:38:45.043Z,6.78
2019-03-15T22:41:16.896Z,6.81
2019-03-15T22:43:46.748Z,6.71
2019-03-15T22:46:17.458Z,6.75
2019-03-15T22:48:47.620Z,6.80
2019-03-15T22:51:20.583Z,6.82
2019-03-15T22:53:49.880Z,6.82
2019-03-15T22:56:19.584Z,6.73
2019-03-15T22:58:49.531Z,6.75
2019-03-15T23:01:29.534Z,6.75
2019-03-15T23:03:50.999Z,6.69
2019-03-15T23:06:24.542Z,6.74
2019-03-15T23:08:53.669Z,6.75
2019-03-15T23:11:23.380Z,6.78
2019-03-15T23:13:52.838Z,6.69
2019-03-15T23:16:22.501Z,6.57
2019-03-15T23:18:53.642Z,6.46
2019-03-15T23:21:23.028Z,6.48
2019-03-15T23:23:52.466Z,6.48
2019-03-15T23:26:47.518Z,6.49
2019-03-15T23:29:17.441Z,6.57
2019-03-15T23:31:47.347Z,6.54
2019-03-15T23:37:59.084Z,6.54
2019-03-15T23:40:30.080Z,6.53
2019-03-15T23:43:00.004Z,6.55
2019-03-15T23:45:30.823Z,6.46
2019-03-15T23:47:59.706Z,6.42
2019-03-15T23:50:35.380Z,6.45
2019-03-15T23:53:05.449Z,6.51
2019-03-15T23:55:35.949Z,6.48
2019-03-15T23:58:04.852Z,6.46
